METAR AND TAF INFORMATION
METAR FOR KLAX
KLAX 270553Z 34004KT 10SM OVC037 13/11 A2998 RMK AO2 SLP150 60004 T01330111 10144 20122 53000 $
KLAX 270541Z VRB03KT 10SM SCT016 OVC037 13/11 A2998 RMK AO2 T01330111 $
KLAX 270453Z 28004KT 10SM OVC015 13/11 A2998 RMK AO2 SLP151 T01280106 $
KLAX 270353Z 23004KT 10SM OVC017 13/11 A2997 RMK AO2 RAE01 SLP147 P0000 T01280106 $
KLAX 270327Z 23003KT 10SM BKN019 OVC040 13/11 A2997 RMK AO2 RAE01 P0000 T01280111 $
KLAX 270550Z 2706/2812 VRB03KT P6SM SCT015 OVC035
FM270900 VRB03KT P6SM BKN015 OVC025
FM271800 24006KT P6SM BKN025 OVC040
FM272000 26012KT P6SM SCT050
FM280300 25007KT P6SM SKC
FM280900 VRB03KT P6SM SKC

 AIRPORT MAP

 RUNWAY INFORMATION
Runway 06L Runway length 8925 ft Runway width 150 ft
Runway elevation 112 ft Runway displaced threshold 0 ft Runway heading 83
Runway 24R Runway length 8925 ft Runway width 150 ft
Runway elevation 117 ft Runway displaced threshold 0 ft Runway heading 263
Runway 06R Runway length 10285 ft Runway width 150 ft
Runway elevation 108 ft Runway displaced threshold 331 ft Runway heading 83
Runway 24L Runway length 10285 ft Runway width 150 ft
Runway elevation 111 ft Runway displaced threshold 0 ft Runway heading 263
Runway 07L Runway length 12091 ft Runway width 150 ft
Runway elevation 119 ft Runway displaced threshold 0 ft Runway heading 83
Runway 25R Runway length 12091 ft Runway width 150 ft
Runway elevation 94 ft Runway displaced threshold 957 ft Runway heading 263
Runway 07R Runway length 11096 ft Runway width 200 ft
Runway elevation 118 ft Runway displaced threshold 0 ft Runway heading 83
Runway 25L Runway length 11096 ft Runway width 200 ft
Runway elevation 95 ft Runway displaced threshold 0 ft Runway heading 263

 AIRPORT FREQUENCIES
Type APP Name SOCAL APP Frequency 124.3 MHZ
Type APP Name SOCAL APP Frequency 36.07 MHZ
Type ATIS Name ATIS Frequency 133.8 MHZ
Type CLD Name CLNC DEL Frequency 121.4 MHZ
Type DEP Name SOCAL DEP Frequency 124.3 MHZ
Type GND Name GND Frequency 121.65 MHZ
Type MISC Name CG Frequency 34.5 MHZ
Type MISC Name CG Frequency 898.4 MHZ
Type OPS Name AF Frequency 37.22 MHZ
Type TWR Name TWR Frequency 119.8 MHZ
Type UNIC Name UNICOM Frequency 122.95 MHZ

 AIRPORT NEAR NAVIGATION AIDS
Type VORTAC Name Los Angeles Frequency 113600 KHZ
Type NDB Name Romen Frequency 278 KHZ

-